sensor_id;sensor_type;location;lat;lon;timestamp;temperature;humidity
68189;DHT22;66299;47.514;19.218;2023-03-29T00:01:40;-0.31;69.41
68189;DHT22;66299;47.514;19.218;2023-03-29T00:04:09;-0.34;69.26
68189;DHT22;66299;47.514;19.218;2023-03-29T00:06:39;-0.36;69.65
68189;DHT22;66299;47.514;19.218;2023-03-29T00:09:08;-0.25;69.39
68189;DHT22;66299;47.514;19.218;2023-03-29T00:11:37;-0.39;69.87
68189;DHT22;66299;47.514;19.218;2023-03-29T00:14:06;-0.69;70.88
68189;DHT22;66299;47.514;19.218;2023-03-29T00:16:37;-0.74;71.02
68189;DHT22;66299;47.514;19.218;2023-03-29T00:19:05;-0.73;71.06
68189;DHT22;66299;47.514;19.218;2023-03-29T00:21:36;-0.77;70.89
68189;DHT22;66299;47.514;19.218;2023-03-29T00:24:05;-0.56;70.40
68189;DHT22;66299;47.514;19.218;2023-03-29T00:26:36;-0.84;71.09
68189;DHT22;66299;47.514;19.218;2023-03-29T00:29:05;-1.04;71.95
68189;DHT22;66299;47.514;19.218;2023-03-29T00:31:37;-1.22;72.95
68189;DHT22;66299;47.514;19.218;2023-03-29T00:34:06;-1.03;71.86
68189;DHT22;66299;47.514;19.218;2023-03-29T00:36:34;-1.03;71.41
68189;DHT22;66299;47.514;19.218;2023-03-29T00:39:06;-1.03;71.35
68189;DHT22;66299;47.514;19.218;2023-03-29T00:41:35;-1.14;72.27
68189;DHT22;66299;47.514;19.218;2023-03-29T00:44:04;-1.28;72.74
68189;DHT22;66299;47.514;19.218;2023-03-29T00:46:33;-1.48;74.43
68189;DHT22;66299;47.514;19.218;2023-03-29T00:49:08;-1.45;73.39
68189;DHT22;66299;47.514;19.218;2023-03-29T00:51:40;-1.48;72.82
68189;DHT22;66299;47.514;19.218;2023-03-29T00:54:11;-1.42;73.81
68189;DHT22;66299;47.514;19.218;2023-03-29T00:56:44;-1.22;72.80
68189;DHT22;66299;47.514;19.218;2023-03-29T00:59:17;-1.04;72.00
68189;DHT22;66299;47.514;19.218;2023-03-29T01:01:49;-1.13;72.59
68189;DHT22;66299;47.514;19.218;2023-03-29T01:04:25;-1.25;73.47
68189;DHT22;66299;47.514;19.218;2023-03-29T01:06:59;-1.20;73.38
68189;DHT22;66299;47.514;19.218;2023-03-29T01:09:32;-1.30;73.72
68189;DHT22;66299;47.514;19.218;2023-03-29T01:12:06;-1.27;73.30
68189;DHT22;66299;47.514;19.218;2023-03-29T01:14:44;-1.49;74.50
68189;DHT22;66299;47.514;19.218;2023-03-29T01:17:15;-1.24;72.86
68189;DHT22;66299;47.514;19.218;2023-03-29T01:19:57;-1.21;72.25
68189;DHT22;66299;47.514;19.218;2023-03-29T01:22:32;-1.35;72.87
68189;DHT22;66299;47.514;19.218;2023-03-29T01:25:10;-1.22;72.40
68189;DHT22;66299;47.514;19.218;2023-03-29T01:27:49;-1.32;72.78
68189;DHT22;66299;47.514;19.218;2023-03-29T01:30:25;-1.28;72.92
68189;DHT22;66299;47.514;19.218;2023-03-29T01:32:57;-1.45;73.05
68189;DHT22;66299;47.514;19.218;2023-03-29T01:35:31;-1.35;73.40
68189;DHT22;66299;47.514;19.218;2023-03-29T01:38:08;-1.20;72.77
68189;DHT22;66299;47.514;19.218;2023-03-29T01:40:41;-1.51;73.45
68189;DHT22;66299;47.514;19.218;2023-03-29T01:43:20;-1.75;74.53
68189;DHT22;66299;47.514;19.218;2023-03-29T01:45:58;-1.89;75.38
68189;DHT22;66299;47.514;19.218;2023-03-29T01:48:30;-1.99;75.97
68189;DHT22;66299;47.514;19.218;2023-03-29T01:51:04;-2.09;77.01
68189;DHT22;66299;47.514;19.218;2023-03-29T01:53:38;-2.17;77.73
68189;DHT22;66299;47.514;19.218;2023-03-29T01:56:12;-2.30;78.09
68189;DHT22;66299;47.514;19.218;2023-03-29T01:58:44;-2.30;78.69
68189;DHT22;66299;47.514;19.218;2023-03-29T02:01:17;-2.47;79.47
68189;DHT22;66299;47.514;19.218;2023-03-29T02:03:51;-2.58;79.57
68189;DHT22;66299;47.514;19.218;2023-03-29T02:06:22;-2.52;79.24
68189;DHT22;66299;47.514;19.218;2023-03-29T02:08:55;-2.42;78.98
68189;DHT22;66299;47.514;19.218;2023-03-29T02:11:27;-2.36;78.62
68189;DHT22;66299;47.514;19.218;2023-03-29T02:13:58;-2.38;79.31
68189;DHT22;66299;47.514;19.218;2023-03-29T02:16:27;-2.52;79.66
68189;DHT22;66299;47.514;19.218;2023-03-29T02:18:58;-2.57;79.76
68189;DHT22;66299;47.514;19.218;2023-03-29T02:21:31;-2.66;80.74
68189;DHT22;66299;47.514;19.218;2023-03-29T02:24:04;-2.64;80.51
68189;DHT22;66299;47.514;19.218;2023-03-29T02:26:39;-2.51;80.67
68189;DHT22;66299;47.514;19.218;2023-03-29T02:29:09;-2.26;79.83
68189;DHT22;66299;47.514;19.218;2023-03-29T02:31:41;-2.48;80.61
68189;DHT22;66299;47.514;19.218;2023-03-29T02:34:19;-2.69;80.80
68189;DHT22;66299;47.514;19.218;2023-03-29T02:36:49;-2.36;79.93
68189;DHT22;66299;47.514;19.218;2023-03-29T02:39:20;-2.23;79.03
68189;DHT22;66299;47.514;19.218;2023-03-29T02:41:55;-2.15;78.42
68189;DHT22;66299;47.514;19.218;2023-03-29T02:44:27;-2.10;78.03
68189;DHT22;66299;47.514;19.218;2023-03-29T02:47:00;-2.06;77.92
68189;DHT22;66299;47.514;19.218;2023-03-29T02:49:30;-2.06;78.09
68189;DHT22;66299;47.514;19.218;2023-03-29T02:52:03;-2.26;79.32
68189;DHT22;66299;47.514;19.218;2023-03-29T02:54:35;-2.55;79.64
68189;DHT22;66299;47.514;19.218;2023-03-29T02:57:10;-2.75;80.43
68189;DHT22;66299;47.514;19.218;2023-03-29T02:59:42;-2.96;81.09
68189;DHT22;66299;47.514;19.218;2023-03-29T03:02:11;-3.00;81.12
68189;DHT22;66299;47.514;19.218;2023-03-29T03:04:41;-2.99;81.56
68189;DHT22;66299;47.514;19.218;2023-03-29T03:07:10;-2.92;81.83
68189;DHT22;66299;47.514;19.218;2023-03-29T03:09:39;-2.96;81.75
68189;DHT22;66299;47.514;19.218;2023-03-29T03:12:08;-2.85;81.66
68189;DHT22;66299;47.514;19.218;2023-03-29T03:14:38;-2.92;81.81
68189;DHT22;66299;47.514;19.218;2023-03-29T03:17:09;-3.10;82.11
68189;DHT22;66299;47.514;19.218;2023-03-29T03:19:38;-3.07;82.05
68189;DHT22;66299;47.514;19.218;2023-03-29T03:22:06;-3.07;82.01
68189;DHT22;66299;47.514;19.218;2023-03-29T03:24:37;-3.14;82.23
68189;DHT22;66299;47.514;19.218;2023-03-29T03:27:06;-3.14;82.53
68189;DHT22;66299;47.514;19.218;2023-03-29T03:29:38;-3.24;82.80
68189;DHT22;66299;47.514;19.218;2023-03-29T03:32:09;-3.28;83.27
68189;DHT22;66299;47.514;19.218;2023-03-29T03:34:38;-3.24;83.65
68189;DHT22;66299;47.514;19.218;2023-03-29T03:37:07;-3.27;82.85
68189;DHT22;66299;47.514;19.218;2023-03-29T03:39:38;-3.23;83.11
68189;DHT22;66299;47.514;19.218;2023-03-29T03:42:06;-3.21;82.54
68189;DHT22;66299;47.514;19.218;2023-03-29T03:44:35;-3.27;82.59
68189;DHT22;66299;47.514;19.218;2023-03-29T03:47:04;-3.44;82.63
68189;DHT22;66299;47.514;19.218;2023-03-29T03:49:34;-3.48;84.52
68189;DHT22;66299;47.514;19.218;2023-03-29T03:52:03;-3.44;84.27
68189;DHT22;66299;47.514;19.218;2023-03-29T03:54:33;-3.48;83.81
68189;DHT22;66299;47.514;19.218;2023-03-29T03:57:01;-3.62;84.11
68189;DHT22;66299;47.514;19.218;2023-03-29T03:59:32;-3.68;84.88
68189;DHT22;66299;47.514;19.218;2023-03-29T04:02:00;-3.68;85.09
68189;DHT22;66299;47.514;19.218;2023-03-29T04:04:31;-3.68;85.62
68189;DHT22;66299;47.514;19.218;2023-03-29T04:07:02;-3.75;85.55
68189;DHT22;66299;47.514;19.218;2023-03-29T04:09:34;-3.76;85.59
68189;DHT22;66299;47.514;19.218;2023-03-29T04:12:03;-3.82;86.02
68189;DHT22;66299;47.514;19.218;2023-03-29T04:14:32;-3.89;85.96
68189;DHT22;66299;47.514;19.218;2023-03-29T04:17:01;-3.82;86.36
68189;DHT22;66299;47.514;19.218;2023-03-29T04:19:31;-3.74;85.87
68189;DHT22;66299;47.514;19.218;2023-03-29T04:21:59;-3.89;86.30
68189;DHT22;66299;47.514;19.218;2023-03-29T04:24:30;-4.03;86.76
68189;DHT22;66299;47.514;19.218;2023-03-29T04:26:58;-3.97;87.56
68189;DHT22;66299;47.514;19.218;2023-03-29T04:29:27;-3.97;87.35
68189;DHT22;66299;47.514;19.218;2023-03-29T04:31:55;-4.03;87.27
68189;DHT22;66299;47.514;19.218;2023-03-29T04:34:24;-3.89;87.93
68189;DHT22;66299;47.514;19.218;2023-03-29T04:36:55;-3.87;87.73
68189;DHT22;66299;47.514;19.218;2023-03-29T04:39:25;-3.92;87.62
68189;DHT22;66299;47.514;19.218;2023-03-29T04:42:01;-3.97;87.57
68189;DHT22;66299;47.514;19.218;2023-03-29T04:44:30;-3.92;88.37
68189;DHT22;66299;47.514;19.218;2023-03-29T04:46:59;-3.93;88.37
68189;DHT22;66299;47.514;19.218;2023-03-29T04:49:28;-3.90;88.80
68189;DHT22;66299;47.514;19.218;2023-03-29T04:51:57;-3.86;88.21
68189;DHT22;66299;47.514;19.218;2023-03-29T04:54:26;-3.83;88.10
68189;DHT22;66299;47.514;19.218;2023-03-29T04:56:55;-3.72;87.95
68189;DHT22;66299;47.514;19.218;2023-03-29T04:59:25;-3.66;87.37
68189;DHT22;66299;47.514;19.218;2023-03-29T05:01:54;-3.47;88.10
68189;DHT22;66299;47.514;19.218;2023-03-29T05:04:22;-3.35;87.54
68189;DHT22;66299;47.514;19.218;2023-03-29T05:06:53;-3.31;86.85
68189;DHT22;66299;47.514;19.218;2023-03-29T05:09:25;-3.26;87.35
68189;DHT22;66299;47.514;19.218;2023-03-29T05:11:54;-3.20;86.84
68189;DHT22;66299;47.514;19.218;2023-03-29T05:14:27;-3.01;86.57
68189;DHT22;66299;47.514;19.218;2023-03-29T05:17:00;-2.75;86.73
68189;DHT22;66299;47.514;19.218;2023-03-29T05:19:32;-2.55;85.75
68189;DHT22;66299;47.514;19.218;2023-03-29T05:22:04;-2.34;85.40
68189;DHT22;66299;47.514;19.218;2023-03-29T05:24:34;-2.23;85.70
68189;DHT22;66299;47.514;19.218;2023-03-29T05:27:03;-2.03;84.88
68189;DHT22;66299;47.514;19.218;2023-03-29T05:29:33;-1.73;82.94
68189;DHT22;66299;47.514;19.218;2023-03-29T05:32:03;-1.68;82.82
68189;DHT22;66299;47.514;19.218;2023-03-29T05:34:34;-1.63;83.01
68189;DHT22;66299;47.514;19.218;2023-03-29T05:37:06;-1.54;84.36
68189;DHT22;66299;47.514;19.218;2023-03-29T05:39:45;-1.40;83.33
68189;DHT22;66299;47.514;19.218;2023-03-29T05:42:15;-1.24;83.01
68189;DHT22;66299;47.514;19.218;2023-03-29T05:44:50;-1.05;82.32
68189;DHT22;66299;47.514;19.218;2023-03-29T05:47:21;-0.90;82.96
68189;DHT22;66299;47.514;19.218;2023-03-29T05:49:53;-0.86;82.62
68189;DHT22;66299;47.514;19.218;2023-03-29T05:52:22;-0.66;82.58
68189;DHT22;66299;47.514;19.218;2023-03-29T05:54:53;-0.61;82.29
68189;DHT22;66299;47.514;19.218;2023-03-29T05:57:26;-0.41;81.41
68189;DHT22;66299;47.514;19.218;2023-03-29T05:59:56;-0.19;80.35
68189;DHT22;66299;47.514;19.218;2023-03-29T06:02:26;-0.10;80.49
68189;DHT22;66299;47.514;19.218;2023-03-29T06:04:56;0.02;79.98
68189;DHT22;66299;47.514;19.218;2023-03-29T06:07:30;0.18;78.75
68189;DHT22;66299;47.514;19.218;2023-03-29T06:10:02;0.43;74.49
68189;DHT22;66299;47.514;19.218;2023-03-29T06:12:30;0.48;73.25
68189;DHT22;66299;47.514;19.218;2023-03-29T06:15:03;0.71;72.65
68189;DHT22;66299;47.514;19.218;2023-03-29T06:17:36;0.86;70.79
68189;DHT22;66299;47.514;19.218;2023-03-29T06:20:10;1.03;71.16
68189;DHT22;66299;47.514;19.218;2023-03-29T06:22:43;1.17;70.45
68189;DHT22;66299;47.514;19.218;2023-03-29T06:25:15;1.36;69.50
68189;DHT22;66299;47.514;19.218;2023-03-29T06:27:45;1.41;69.22
68189;DHT22;66299;47.514;19.218;2023-03-29T06:30:15;1.60;68.46
68189;DHT22;66299;47.514;19.218;2023-03-29T06:32:45;1.62;66.84
68189;DHT22;66299;47.514;19.218;2023-03-29T06:35:17;1.86;66.88
68189;DHT22;66299;47.514;19.218;2023-03-29T06:37:47;1.89;65.80
68189;DHT22;66299;47.514;19.218;2023-03-29T06:40:19;1.74;64.44
68189;DHT22;66299;47.514;19.218;2023-03-29T06:42:53;1.83;65.11
68189;DHT22;66299;47.514;19.218;2023-03-29T06:45:30;2.02;64.80
68189;DHT22;66299;47.514;19.218;2023-03-29T06:48:00;1.92;63.37
68189;DHT22;66299;47.514;19.218;2023-03-29T06:50:43;1.98;62.14
68189;DHT22;66299;47.514;19.218;2023-03-29T06:53:12;2.03;61.50
68189;DHT22;66299;47.514;19.218;2023-03-29T06:55:43;2.09;61.52
68189;DHT22;66299;47.514;19.218;2023-03-29T06:58:12;2.13;61.34
68189;DHT22;66299;47.514;19.218;2023-03-29T07:00:48;2.20;60.30
68189;DHT22;66299;47.514;19.218;2023-03-29T07:03:19;2.39;60.90
68189;DHT22;66299;47.514;19.218;2023-03-29T07:05:51;2.54;59.77
68189;DHT22;66299;47.514;19.218;2023-03-29T07:08:31;2.36;59.17
68189;DHT22;66299;47.514;19.218;2023-03-29T07:11:07;2.43;59.25
68189;DHT22;66299;47.514;19.218;2023-03-29T07:13:36;2.61;58.68
68189;DHT22;66299;47.514;19.218;2023-03-29T07:16:10;2.50;58.31
68189;DHT22;66299;47.514;19.218;2023-03-29T07:18:44;2.78;57.87
68189;DHT22;66299;47.514;19.218;2023-03-29T07:21:14;3.12;56.87
68189;DHT22;66299;47.514;19.218;2023-03-29T07:23:47;2.85;56.70
68189;DHT22;66299;47.514;19.218;2023-03-29T07:26:17;2.94;56.23
68189;DHT22;66299;47.514;19.218;2023-03-29T07:28:57;3.37;57.20
68189;DHT22;66299;47.514;19.218;2023-03-29T07:31:29;3.22;53.38
68189;DHT22;66299;47.514;19.218;2023-03-29T07:34:04;3.42;53.41
68189;DHT22;66299;47.514;19.218;2023-03-29T07:36:36;3.43;54.00
68189;DHT22;66299;47.514;19.218;2023-03-29T07:39:11;3.63;53.48
68189;DHT22;66299;47.514;19.218;2023-03-29T07:41:45;3.88;52.27
68189;DHT22;66299;47.514;19.218;2023-03-29T07:44:14;3.98;50.80
68189;DHT22;66299;47.514;19.218;2023-03-29T07:46:47;4.14;50.87
68189;DHT22;66299;47.514;19.218;2023-03-29T07:49:15;3.95;50.49
68189;DHT22;66299;47.514;19.218;2023-03-29T07:51:51;4.06;50.51
68189;DHT22;66299;47.514;19.218;2023-03-29T07:54:22;3.85;49.62
68189;DHT22;66299;47.514;19.218;2023-03-29T07:56:59;3.69;50.12
68189;DHT22;66299;47.514;19.218;2023-03-29T07:59:30;3.88;50.74
68189;DHT22;66299;47.514;19.218;2023-03-29T08:02:05;4.01;49.16
68189;DHT22;66299;47.514;19.218;2023-03-29T08:04:35;3.88;48.63
68189;DHT22;66299;47.514;19.218;2023-03-29T08:07:05;4.11;48.87
68189;DHT22;66299;47.514;19.218;2023-03-29T08:09:35;4.36;48.34
68189;DHT22;66299;47.514;19.218;2023-03-29T08:12:04;4.54;48.58
68189;DHT22;66299;47.514;19.218;2023-03-29T08:14:35;4.73;48.26
68189;DHT22;66299;47.514;19.218;2023-03-29T08:17:10;4.88;48.36
68189;DHT22;66299;47.514;19.218;2023-03-29T08:19:39;4.90;48.05
68189;DHT22;66299;47.514;19.218;2023-03-29T08:22:24;4.80;48.24
68189;DHT22;66299;47.514;19.218;2023-03-29T08:24:54;5.08;47.30
68189;DHT22;66299;47.514;19.218;2023-03-29T08:27:22;5.15;47.59
68189;DHT22;66299;47.514;19.218;2023-03-29T08:29:51;4.46;45.46
68189;DHT22;66299;47.514;19.218;2023-03-29T08:32:22;4.81;46.40
68189;DHT22;66299;47.514;19.218;2023-03-29T08:34:56;4.60;45.52
68189;DHT22;66299;47.514;19.218;2023-03-29T08:37:34;4.74;46.45
68189;DHT22;66299;47.514;19.218;2023-03-29T08:40:05;4.66;46.01
68189;DHT22;66299;47.514;19.218;2023-03-29T08:42:46;4.49;45.91
68189;DHT22;66299;47.514;19.218;2023-03-29T08:45:25;4.97;46.70
68189;DHT22;66299;47.514;19.218;2023-03-29T08:48:04;5.35;46.04
68189;DHT22;66299;47.514;19.218;2023-03-29T08:50:39;5.22;44.54
68189;DHT22;66299;47.514;19.218;2023-03-29T08:53:12;5.31;43.85
68189;DHT22;66299;47.514;19.218;2023-03-29T08:55:44;5.49;42.46
68189;DHT22;66299;47.514;19.218;2023-03-29T08:58:17;5.27;42.18
68189;DHT22;66299;47.514;19.218;2023-03-29T09:00:54;5.83;43.04
68189;DHT22;66299;47.514;19.218;2023-03-29T09:03:34;5.79;43.85
68189;DHT22;66299;47.514;19.218;2023-03-29T09:06:09;5.90;43.66
68189;DHT22;66299;47.514;19.218;2023-03-29T09:08:41;5.76;43.12
68189;DHT22;66299;47.514;19.218;2023-03-29T09:11:22;5.89;42.15
68189;DHT22;66299;47.514;19.218;2023-03-29T09:14:04;5.60;43.27
68189;DHT22;66299;47.514;19.218;2023-03-29T09:16:43;5.80;43.74
68189;DHT22;66299;47.514;19.218;2023-03-29T09:19:25;6.10;43.81
68189;DHT22;66299;47.514;19.218;2023-03-29T09:22:02;6.44;42.13
68189;DHT22;66299;47.514;19.218;2023-03-29T09:24:40;6.14;41.74
68189;DHT22;66299;47.514;19.218;2023-03-29T09:27:18;5.58;42.41
68189;DHT22;66299;47.514;19.218;2023-03-29T09:30:02;5.91;43.08
68189;DHT22;66299;47.514;19.218;2023-03-29T09:32:38;6.22;42.43
68189;DHT22;66299;47.514;19.218;2023-03-29T09:35:21;6.35;42.34
68189;DHT22;66299;47.514;19.218;2023-03-29T09:37:53;6.29;43.35
68189;DHT22;66299;47.514;19.218;2023-03-29T09:40:25;6.10;42.23
68189;DHT22;66299;47.514;19.218;2023-03-29T09:42:57;6.34;43.43
68189;DHT22;66299;47.514;19.218;2023-03-29T09:45:27;6.25;43.85
68189;DHT22;66299;47.514;19.218;2023-03-29T09:47:58;6.49;43.89
68189;DHT22;66299;47.514;19.218;2023-03-29T09:50:37;6.55;43.08
68189;DHT22;66299;47.514;19.218;2023-03-29T09:53:07;6.83;43.83
68189;DHT22;66299;47.514;19.218;2023-03-29T09:55:36;6.50;43.79
68189;DHT22;66299;47.514;19.218;2023-03-29T09:58:14;6.76;43.08
68189;DHT22;66299;47.514;19.218;2023-03-29T10:00:46;6.72;42.87
68189;DHT22;66299;47.514;19.218;2023-03-29T10:03:21;7.10;43.00
68189;DHT22;66299;47.514;19.218;2023-03-29T10:05:54;7.07;42.70
68189;DHT22;66299;47.514;19.218;2023-03-29T10:08:27;6.86;43.96
68189;DHT22;66299;47.514;19.218;2023-03-29T10:11:01;6.90;43.07
68189;DHT22;66299;47.514;19.218;2023-03-29T10:13:34;6.49;43.34
68189;DHT22;66299;47.514;19.218;2023-03-29T10:16:05;6.96;43.49
68189;DHT22;66299;47.514;19.218;2023-03-29T10:18:38;7.07;44.34
68189;DHT22;66299;47.514;19.218;2023-03-29T10:21:13;7.03;44.25
68189;DHT22;66299;47.514;19.218;2023-03-29T10:23:45;7.28;44.07
68189;DHT22;66299;47.514;19.218;2023-03-29T10:26:22;6.80;44.04
68189;DHT22;66299;47.514;19.218;2023-03-29T10:28:52;6.87;44.70
68189;DHT22;66299;47.514;19.218;2023-03-29T10:31:25;7.00;44.45
68189;DHT22;66299;47.514;19.218;2023-03-29T10:33:58;7.51;43.83
68189;DHT22;66299;47.514;19.218;2023-03-29T10:36:31;7.83;43.98
68189;DHT22;66299;47.514;19.218;2023-03-29T10:39:03;7.35;43.97
68189;DHT22;66299;47.514;19.218;2023-03-29T10:41:33;8.02;43.01
68189;DHT22;66299;47.514;19.218;2023-03-29T10:44:04;7.68;43.28
68189;DHT22;66299;47.514;19.218;2023-03-29T10:46:39;8.40;43.51
68189;DHT22;66299;47.514;19.218;2023-03-29T10:49:17;7.28;42.61
68189;DHT22;66299;47.514;19.218;2023-03-29T10:51:49;7.72;43.35
68189;DHT22;66299;47.514;19.218;2023-03-29T10:54:20;8.11;42.74
68189;DHT22;66299;47.514;19.218;2023-03-29T10:56:57;7.85;44.06
68189;DHT22;66299;47.514;19.218;2023-03-29T10:59:29;8.79;42.48
68189;DHT22;66299;47.514;19.218;2023-03-29T11:02:25;8.52;43.03
68189;DHT22;66299;47.514;19.218;2023-03-29T11:05:10;8.51;41.76
68189;DHT22;66299;47.514;19.218;2023-03-29T11:07:54;8.47;42.34
68189;DHT22;66299;47.514;19.218;2023-03-29T11:10:38;9.59;43.15
68189;DHT22;66299;47.514;19.218;2023-03-29T11:13:17;10.01;40.60
68189;DHT22;66299;47.514;19.218;2023-03-29T11:16:00;9.74;41.00
68189;DHT22;66299;47.514;19.218;2023-03-29T11:21:38;9.78;40.42
68189;DHT22;66299;47.514;19.218;2023-03-29T11:24:25;9.13;41.65
68189;DHT22;66299;47.514;19.218;2023-03-29T11:27:07;8.41;43.34
68189;DHT22;66299;47.514;19.218;2023-03-29T11:29:42;8.64;42.61
68189;DHT22;66299;47.514;19.218;2023-03-29T11:32:19;9.31;41.26
68189;DHT22;66299;47.514;19.218;2023-03-29T11:34:56;9.67;41.28
68189;DHT22;66299;47.514;19.218;2023-03-29T11:37:33;9.92;40.73
68189;DHT22;66299;47.514;19.218;2023-03-29T11:40:15;10.65;42.12
68189;DHT22;66299;47.514;19.218;2023-03-29T11:42:53;10.10;40.56
68189;DHT22;66299;47.514;19.218;2023-03-29T11:45:26;10.13;40.97
68189;DHT22;66299;47.514;19.218;2023-03-29T11:47:59;9.51;42.01
68189;DHT22;66299;47.514;19.218;2023-03-29T11:50:36;9.91;40.77
68189;DHT22;66299;47.514;19.218;2023-03-29T11:53:15;10.46;40.21
68189;DHT22;66299;47.514;19.218;2023-03-29T11:55:50;10.47;39.52
68189;DHT22;66299;47.514;19.218;2023-03-29T11:58:23;10.52;39.92
68189;DHT22;66299;47.514;19.218;2023-03-29T12:00:56;10.22;41.04
68189;DHT22;66299;47.514;19.218;2023-03-29T12:03:35;10.16;41.74
68189;DHT22;66299;47.514;19.218;2023-03-29T12:06:12;10.16;41.31
68189;DHT22;66299;47.514;19.218;2023-03-29T12:08:45;10.87;39.82
68189;DHT22;66299;47.514;19.218;2023-03-29T12:11:22;10.95;41.80
68189;DHT22;66299;47.514;19.218;2023-03-29T12:14:01;10.52;41.39
68189;DHT22;66299;47.514;19.218;2023-03-29T12:16:34;10.16;42.35
68189;DHT22;66299;47.514;19.218;2023-03-29T12:19:14;10.20;41.54
68189;DHT22;66299;47.514;19.218;2023-03-29T12:21:46;10.54;39.77
68189;DHT22;66299;47.514;19.218;2023-03-29T12:24:17;11.40;39.00
68189;DHT22;66299;47.514;19.218;2023-03-29T12:27:03;9.81;40.35
68189;DHT22;66299;47.514;19.218;2023-03-29T12:29:44;9.79;41.83
68189;DHT22;66299;47.514;19.218;2023-03-29T12:32:32;9.91;42.46
68189;DHT22;66299;47.514;19.218;2023-03-29T12:35:16;10.30;41.51
68189;DHT22;66299;47.514;19.218;2023-03-29T12:37:59;10.30;41.11
68189;DHT22;66299;47.514;19.218;2023-03-29T12:40:39;10.17;42.74
68189;DHT22;66299;47.514;19.218;2023-03-29T12:43:20;10.42;41.90
68189;DHT22;66299;47.514;19.218;2023-03-29T12:45:56;10.01;39.32
68189;DHT22;66299;47.514;19.218;2023-03-29T12:48:29;10.01;40.67
68189;DHT22;66299;47.514;19.218;2023-03-29T12:51:05;10.47;40.69
68189;DHT22;66299;47.514;19.218;2023-03-29T12:53:38;11.40;38.74
68189;DHT22;66299;47.514;19.218;2023-03-29T12:56:13;10.30;41.05
68189;DHT22;66299;47.514;19.218;2023-03-29T12:59:05;10.29;41.29
68189;DHT22;66299;47.514;19.218;2023-03-29T13:01:36;10.12;40.02
68189;DHT22;66299;47.514;19.218;2023-03-29T13:04:15;10.16;40.44
68189;DHT22;66299;47.514;19.218;2023-03-29T13:06:57;10.37;40.51
68189;DHT22;66299;47.514;19.218;2023-03-29T13:09:48;10.12;40.96
68189;DHT22;66299;47.514;19.218;2023-03-29T13:12:24;10.60;40.95
68189;DHT22;66299;47.514;19.218;2023-03-29T13:15:00;10.34;41.91
68189;DHT22;66299;47.514;19.218;2023-03-29T13:17:35;10.29;43.15
68189;DHT22;66299;47.514;19.218;2023-03-29T13:20:23;10.65;42.92
68189;DHT22;66299;47.514;19.218;2023-03-29T13:23:14;10.49;42.00
68189;DHT22;66299;47.514;19.218;2023-03-29T13:26:00;10.32;42.67
68189;DHT22;66299;47.514;19.218;2023-03-29T13:28:38;10.49;42.83
68189;DHT22;66299;47.514;19.218;2023-03-29T13:31:21;10.23;42.13
68189;DHT22;66299;47.514;19.218;2023-03-29T13:33:59;10.65;41.55
68189;DHT22;66299;47.514;19.218;2023-03-29T13:36:43;10.67;41.60
68189;DHT22;66299;47.514;19.218;2023-03-29T13:39:15;10.36;42.24
68189;DHT22;66299;47.514;19.218;2023-03-29T13:41:50;10.71;43.03
68189;DHT22;66299;47.514;19.218;2023-03-29T13:44:25;10.84;43.09
68189;DHT22;66299;47.514;19.218;2023-03-29T13:47:13;11.01;42.34
68189;DHT22;66299;47.514;19.218;2023-03-29T13:49:47;9.70;43.30
68189;DHT22;66299;47.514;19.218;2023-03-29T13:52:24;9.79;44.19
68189;DHT22;66299;47.514;19.218;2023-03-29T13:54:56;10.32;43.45
68189;DHT22;66299;47.514;19.218;2023-03-29T13:57:35;10.37;44.91
68189;DHT22;66299;47.514;19.218;2023-03-29T14:00:13;10.42;45.10
68189;DHT22;66299;47.514;19.218;2023-03-29T14:02:48;10.22;46.53
68189;DHT22;66299;47.514;19.218;2023-03-29T14:05:20;10.33;46.28
68189;DHT22;66299;47.514;19.218;2023-03-29T14:07:55;10.57;43.97
68189;DHT22;66299;47.514;19.218;2023-03-29T14:10:26;9.67;44.03
68189;DHT22;66299;47.514;19.218;2023-03-29T14:13:00;9.59;44.90
68189;DHT22;66299;47.514;19.218;2023-03-29T14:15:44;10.43;44.43
68189;DHT22;66299;47.514;19.218;2023-03-29T14:18:17;10.73;43.63
68189;DHT22;66299;47.514;19.218;2023-03-29T14:20:49;10.47;43.90
68189;DHT22;66299;47.514;19.218;2023-03-29T14:23:22;10.43;45.68
68189;DHT22;66299;47.514;19.218;2023-03-29T14:25:51;10.34;47.07
68189;DHT22;66299;47.514;19.218;2023-03-29T14:28:21;10.65;46.61
68189;DHT22;66299;47.514;19.218;2023-03-29T14:30:50;10.63;46.88
68189;DHT22;66299;47.514;19.218;2023-03-29T14:33:29;10.32;45.28
68189;DHT22;66299;47.514;19.218;2023-03-29T14:36:01;10.30;45.48
68189;DHT22;66299;47.514;19.218;2023-03-29T14:38:31;10.37;46.43
68189;DHT22;66299;47.514;19.218;2023-03-29T14:41:03;10.02;46.11
68189;DHT22;66299;47.514;19.218;2023-03-29T14:43:33;10.15;47.10
68189;DHT22;66299;47.514;19.218;2023-03-29T14:46:04;10.20;45.63
68189;DHT22;66299;47.514;19.218;2023-03-29T14:48:36;9.96;47.35
68189;DHT22;66299;47.514;19.218;2023-03-29T14:51:05;10.01;48.28
68189;DHT22;66299;47.514;19.218;2023-03-29T14:53:35;9.92;48.13
68189;DHT22;66299;47.514;19.218;2023-03-29T14:56:05;9.88;48.44
68189;DHT22;66299;47.514;19.218;2023-03-29T14:58:35;9.81;48.07
68189;DHT22;66299;47.514;19.218;2023-03-29T15:01:12;9.70;49.86
68189;DHT22;66299;47.514;19.218;2023-03-29T15:03:50;9.77;50.36
68189;DHT22;66299;47.514;19.218;2023-03-29T15:06:22;9.78;50.82
68189;DHT22;66299;47.514;19.218;2023-03-29T15:08:51;9.75;50.09
68189;DHT22;66299;47.514;19.218;2023-03-29T15:11:33;9.62;48.97
68189;DHT22;66299;47.514;19.218;2023-03-29T15:14:07;9.62;48.84
68189;DHT22;66299;47.514;19.218;2023-03-29T15:16:41;9.52;50.28
68189;DHT22;66299;47.514;19.218;2023-03-29T15:19:17;9.55;50.37
68189;DHT22;66299;47.514;19.218;2023-03-29T15:21:50;9.46;50.35
68189;DHT22;66299;47.514;19.218;2023-03-29T15:24:22;9.62;49.49
68189;DHT22;66299;47.514;19.218;2023-03-29T15:26:59;9.68;49.79
68189;DHT22;66299;47.514;19.218;2023-03-29T15:29:34;9.64;49.57
68189;DHT22;66299;47.514;19.218;2023-03-29T15:32:07;9.54;50.57
68189;DHT22;66299;47.514;19.218;2023-03-29T15:34:56;9.52;49.74
68189;DHT22;66299;47.514;19.218;2023-03-29T15:37:25;9.47;50.14
68189;DHT22;66299;47.514;19.218;2023-03-29T15:39:55;9.51;50.12
68189;DHT22;66299;47.514;19.218;2023-03-29T15:42:24;9.48;50.03
68189;DHT22;66299;47.514;19.218;2023-03-29T15:44:54;9.43;49.37
68189;DHT22;66299;47.514;19.218;2023-03-29T15:47:24;9.38;49.54
68189;DHT22;66299;47.514;19.218;2023-03-29T15:49:53;9.44;51.29
68189;DHT22;66299;47.514;19.218;2023-03-29T15:52:22;9.37;51.50
68189;DHT22;66299;47.514;19.218;2023-03-29T15:54:51;9.40;51.28
68189;DHT22;66299;47.514;19.218;2023-03-29T15:57:19;9.20;50.74
68189;DHT22;66299;47.514;19.218;2023-03-29T15:59:48;9.38;51.36
68189;DHT22;66299;47.514;19.218;2023-03-29T16:02:20;9.41;49.49
68189;DHT22;66299;47.514;19.218;2023-03-29T16:04:50;9.27;49.63